Time;durP1;ratioP1;P1;durP2;ratioP2;P2;SDS_P1;SDS_P2;PMS_P1;PMS_P2;Temp;Humidity;BMP_temperature;BMP_pressure;BME280_temperature;BME280_humidity;BME280_pressure;Samples;Min_cycle;Max_cycle;Signal;HPM_P1;HPM_P2
2021/10/04 00:00:26;;;;;;;14.85;10.85;;;19.40;88.60;;;;;;5010328;28;20034;-68
2021/10/04 00:02:51;;;;;;;15.30;10.82;;;19.40;88.80;;;;;;4997688;28;20069;-69
2021/10/04 00:05:17;;;;;;;13.82;10.77;;;19.40;88.90;;;;;;4994693;28;20117;-68
2021/10/04 00:07:43;;;;;;;12.40;10.40;;;19.40;89.10;;;;;;5020534;28;20450;-68
2021/10/04 00:10:11;;;;;;;14.73;10.48;;;19.40;89.10;;;;;;5027502;28;20954;-68
2021/10/04 00:12:37;;;;;;;12.50;9.40;;;19.40;89.20;;;;;;5009060;28;20030;-68
2021/10/04 00:15:05;;;;;;;13.35;9.85;;;19.50;89.70;;;;;;5010447;28;20506;-69
2021/10/04 00:17:30;;;;;;;11.35;9.02;;;19.50;89.30;;;;;;5008479;28;20037;-69
2021/10/04 00:19:56;;;;;;;12.43;9.45;;;19.50;89.40;;;;;;4998916;28;20022;-69
2021/10/04 00:22:21;;;;;;;12.73;9.52;;;19.50;89.40;;;;;;5011092;28;20116;-68
2021/10/04 00:24:47;;;;;;;12.45;9.30;;;19.50;89.50;;;;;;5010236;28;20080;-69
2021/10/04 00:27:12;;;;;;;11.68;9.15;;;19.50;89.50;;;;;;5009205;28;20026;-69
2021/10/04 00:29:38;;;;;;;13.02;8.98;;;19.50;89.60;;;;;;5010379;28;20055;-69
2021/10/04 00:32:04;;;;;;;10.85;8.65;;;19.50;89.70;;;;;;5009309;28;20160;-69
2021/10/04 00:34:30;;;;;;;11.27;9.00;;;19.50;89.90;;;;;;5010609;28;20030;-69
2021/10/04 00:36:55;;;;;;;11.48;8.68;;;19.50;90.00;;;;;;5009713;28;20022;-68
2021/10/04 00:39:21;;;;;;;12.20;8.68;;;19.50;90.00;;;;;;5011299;28;20037;-69
2021/10/04 00:41:46;;;;;;;11.23;8.48;;;19.50;90.10;;;;;;5005234;28;20018;-68
2021/10/04 00:44:12;;;;;;;12.48;8.63;;;19.50;90.10;;;;;;4994212;28;20042;-68
2021/10/04 00:46:38;;;;;;;9.88;8.20;;;19.50;90.10;;;;;;5010164;28;20389;-69
2021/10/04 00:49:04;;;;;;;9.77;7.95;;;19.50;90.20;;;;;;5015097;28;20014;-69
2021/10/04 00:51:29;;;;;;;10.15;8.02;;;19.50;90.30;;;;;;5011061;28;20701;-69
2021/10/04 00:53:55;;;;;;;11.77;7.93;;;19.50;90.30;;;;;;5014618;28;20128;-69
2021/10/04 00:56:21;;;;;;;11.93;8.05;;;19.50;90.40;;;;;;5007137;28;20034;-69
2021/10/04 00:58:47;;;;;;;9.57;8.05;;;19.50;90.40;;;;;;5014882;28;20033;-69
2021/10/04 01:01:12;;;;;;;9.25;7.45;;;19.50;90.50;;;;;;5013119;28;20044;-69
2021/10/04 01:03:38;;;;;;;11.55;8.40;;;19.50;90.60;;;;;;5013981;28;20025;-69
2021/10/04 01:06:04;;;;;;;10.18;8.15;;;19.50;90.60;;;;;;5013723;28;20034;-68
2021/10/04 01:08:30;;;;;;;10.55;7.93;;;19.50;90.70;;;;;;5004171;28;20096;-68
2021/10/04 01:10:56;;;;;;;10.75;7.78;;;19.50;90.70;;;;;;4994917;28;20042;-68
2021/10/04 01:13:21;;;;;;;10.75;7.50;;;19.50;90.80;;;;;;5010242;28;20112;-68
2021/10/04 01:15:47;;;;;;;10.68;7.60;;;19.50;90.90;;;;;;5010497;28;20119;-68
2021/10/04 01:18:13;;;;;;;9.40;6.50;;;19.50;90.90;;;;;;5009824;28;20030;-67
2021/10/04 01:20:39;;;;;;;10.02;7.93;;;19.50;91.10;;;;;;5014452;28;20025;-69
2021/10/04 01:23:04;;;;;;;9.57;7.28;;;19.50;91.40;;;;;;4998299;28;20057;-69
2021/10/04 01:25:30;;;;;;;11.85;7.93;;;19.50;91.40;;;;;;5001945;28;20390;-68
2021/10/04 01:27:56;;;;;;;10.90;7.35;;;19.50;91.50;;;;;;5012912;28;20109;-68
2021/10/04 01:30:24;;;;;;;10.15;6.85;;;19.50;91.60;;;;;;5010332;28;20061;-68
2021/10/04 01:32:51;;;;;;;9.50;6.38;;;19.40;91.70;;;;;;5011667;28;20061;-68
2021/10/04 01:35:17;;;;;;;12.13;6.78;;;19.40;91.80;;;;;;5013552;28;20037;-68
2021/10/04 01:37:43;;;;;;;8.20;6.05;;;19.40;91.90;;;;;;5012440;28;20165;-68
2021/10/04 01:40:10;;;;;;;8.57;5.80;;;19.40;92.10;;;;;;5013143;28;20124;-68
2021/10/04 01:42:37;;;;;;;7.43;5.57;;;19.30;92.20;;;;;;5011426;28;20052;-68
2021/10/04 01:45:09;;;;;;;9.23;5.60;;;19.30;92.30;;;;;;5010254;28;20045;-69
2021/10/04 01:47:36;;;;;;;7.53;5.22;;;19.30;92.30;;;;;;4996452;28;20026;-68
2021/10/04 01:50:01;;;;;;;7.55;5.03;;;19.30;92.30;;;;;;5005534;28;20137;-68
2021/10/04 01:52:27;;;;;;;7.47;5.25;;;19.20;92.40;;;;;;5011774;28;20471;-69
2021/10/04 01:54:52;;;;;;;5.57;4.35;;;19.30;92.40;;;;;;5006950;28;20053;-70
2021/10/04 01:57:18;;;;;;;5.88;4.60;;;19.20;92.50;;;;;;5009011;28;20087;-69
2021/10/04 01:59:43;;;;;;;6.80;4.90;;;19.20;92.60;;;;;;5000428;28;20023;-69
2021/10/04 02:02:09;;;;;;;6.28;4.47;;;19.20;92.70;;;;;;4993702;28;20616;-68
2021/10/04 02:04:34;;;;;;;5.43;4.13;;;19.20;92.80;;;;;;5002253;28;20086;-69
2021/10/04 02:07:00;;;;;;;5.28;3.78;;;19.20;92.80;;;;;;4999711;28;20022;-68
2021/10/04 02:09:26;;;;;;;5.72;3.70;;;19.20;92.90;;;;;;5011485;28;20029;-69
2021/10/04 02:11:52;;;;;;;4.22;3.13;;;19.20;92.90;;;;;;5012801;28;20025;-69
2021/10/04 02:14:17;;;;;;;3.90;2.63;;;19.10;92.90;;;;;;5010737;28;20029;-69
2021/10/04 02:16:43;;;;;;;3.60;2.33;;;19.10;92.80;;;;;;5007712;28;20125;-68
2021/10/04 02:19:09;;;;;;;3.33;2.40;;;19.10;92.90;;;;;;4999485;28;20033;-68
2021/10/04 02:21:35;;;;;;;3.55;2.50;;;19.10;92.90;;;;;;5012502;28;20033;-68
2021/10/04 02:24:01;;;;;;;4.10;2.17;;;19.00;93.00;;;;;;5008386;28;20069;-68
2021/10/04 02:26:27;;;;;;;3.67;1.73;;;18.90;93.00;;;;;;5012797;28;20022;-68
2021/10/04 02:28:52;;;;;;;2.28;1.70;;;18.90;93.10;;;;;;5012060;28;20026;-68
2021/10/04 02:31:18;;;;;;;2.78;1.77;;;18.90;93.20;;;;;;5011983;28;20155;-68
2021/10/04 02:33:44;;;;;;;3.53;1.90;;;18.90;93.20;;;;;;5003128;28;20026;-68
2021/10/04 02:36:09;;;;;;;2.83;1.80;;;18.80;93.30;;;;;;5013054;28;20364;-68
2021/10/04 02:38:35;;;;;;;2.65;1.88;;;18.80;93.40;;;;;;5010621;28;20056;-68
2021/10/04 02:41:00;;;;;;;3.72;1.80;;;18.80;93.50;;;;;;5012917;28;20022;-68
2021/10/04 02:43:26;;;;;;;3.05;1.90;;;18.70;93.50;;;;;;5010861;28;20118;-68
2021/10/04 02:45:53;;;;;;;3.83;1.85;;;18.70;93.60;;;;;;5008224;28;20052;-68
2021/10/04 02:48:20;;;;;;;2.85;1.80;;;18.70;93.70;;;;;;5012145;28;20026;-68
2021/10/04 02:50:47;;;;;;;3.63;1.80;;;18.60;93.80;;;;;;5010635;28;20032;-68
2021/10/04 02:53:12;;;;;;;2.90;1.77;;;18.60;93.80;;;;;;5005039;28;20033;-68
2021/10/04 02:55:38;;;;;;;2.20;1.85;;;18.60;93.90;;;;;;5007962;28;20054;-68
2021/10/04 02:58:04;;;;;;;1.98;1.58;;;18.60;94.00;;;;;;5012713;28;20029;-68
2021/10/04 03:00:35;;;;;;;2.53;1.70;;;18.50;94.10;;;;;;5009547;28;20026;-68
2021/10/04 03:03:02;;;;;;;2.00;1.40;;;18.50;94.30;;;;;;5010847;28;20026;-68
2021/10/04 03:05:27;;;;;;;4.32;1.45;;;18.40;94.20;;;;;;5009454;28;20045;-68
2021/10/04 03:07:53;;;;;;;1.95;1.45;;;18.40;94.30;;;;;;5011211;28;20026;-69
2021/10/04 03:10:18;;;;;;;1.77;1.30;;;18.40;94.30;;;;;;5010589;28;20356;-68
2021/10/04 03:12:44;;;;;;;2.30;1.30;;;18.40;94.30;;;;;;5009195;28;20026;-68
2021/10/04 03:15:09;;;;;;;2.25;1.40;;;18.40;94.30;;;;;;4997599;28;20026;-67
2021/10/04 03:17:35;;;;;;;2.72;1.52;;;18.30;94.40;;;;;;5010344;28;20026;-67
2021/10/04 03:20:01;;;;;;;2.78;1.70;;;18.30;94.40;;;;;;5010946;28;20022;-68
2021/10/04 03:22:26;;;;;;;3.03;1.55;;;18.30;94.50;;;;;;4994718;28;20068;-68
2021/10/04 03:24:52;;;;;;;1.95;1.42;;;18.30;94.60;;;;;;5009060;28;20072;-68
2021/10/04 03:27:17;;;;;;;2.30;1.70;;;18.30;94.60;;;;;;5010329;28;20410;-68
2021/10/04 03:29:43;;;;;;;4.25;1.48;;;18.20;94.70;;;;;;5010148;28;20044;-68
2021/10/04 03:32:08;;;;;;;2.35;1.70;;;18.20;94.80;;;;;;5026191;28;20022;-68
2021/10/04 03:34:34;;;;;;;2.80;1.52;;;18.10;95.00;;;;;;5003773;28;20120;-67
2021/10/04 03:37:00;;;;;;;1.33;1.10;;;18.10;95.00;;;;;;5011091;28;20045;-68
2021/10/04 03:39:26;;;;;;;3.22;1.55;;;18.10;95.00;;;;;;5010598;28;20130;-68
2021/10/04 03:41:52;;;;;;;1.48;1.20;;;18.00;95.20;;;;;;5010444;28;20029;-68
2021/10/04 03:44:17;;;;;;;2.70;1.42;;;17.90;95.20;;;;;;5007682;28;20041;-68
2021/10/04 03:46:43;;;;;;;2.33;1.48;;;17.90;95.40;;;;;;5010815;28;20065;-67
2021/10/04 03:49:08;;;;;;;1.58;1.35;;;17.90;95.40;;;;;;5009990;28;20026;-68
2021/10/04 03:51:34;;;;;;;1.38;1.10;;;17.90;95.40;;;;;;5010523;28;20061;-67
2021/10/04 03:53:59;;;;;;;1.88;1.20;;;17.80;95.40;;;;;;5005509;28;20049;-66
2021/10/04 03:56:25;;;;;;;2.38;1.33;;;17.80;95.50;;;;;;5011803;28;20117;-67
2021/10/04 03:58:50;;;;;;;1.52;1.05;;;17.80;95.60;;;;;;5008288;28;20030;-67
2021/10/04 04:01:16;;;;;;;2.42;1.35;;;17.80;95.70;;;;;;5010653;28;20022;-66
2021/10/04 04:03:42;;;;;;;2.35;1.65;;;17.80;95.70;;;;;;5007287;28;20048;-67
2021/10/04 04:06:07;;;;;;;1.75;1.30;;;17.80;95.80;;;;;;4991503;28;20379;-67
2021/10/04 04:08:34;;;;;;;2.05;1.23;;;17.80;95.90;;;;;;5010337;28;20026;-68
2021/10/04 04:11:00;;;;;;;2.22;1.10;;;17.70;95.90;;;;;;5008840;28;20100;-68
2021/10/04 04:13:26;;;;;;;2.78;1.30;;;17.70;95.90;;;;;;5007271;28;20125;-68
2021/10/04 04:15:52;;;;;;;1.42;1.10;;;17.70;96.00;;;;;;4992205;28;20038;-68
2021/10/04 04:18:17;;;;;;;3.22;1.38;;;17.60;96.10;;;;;;5009866;28;20026;-68
2021/10/04 04:20:43;;;;;;;2.20;1.30;;;17.60;96.00;;;;;;4999671;28;20057;-68
2021/10/04 04:23:08;;;;;;;1.98;1.17;;;17.60;96.00;;;;;;5014852;28;20018;-68
2021/10/04 04:25:34;;;;;;;1.30;1.00;;;17.60;95.90;;;;;;4997694;28;20034;-68
2021/10/04 04:28:00;;;;;;;2.17;1.40;;;17.60;95.90;;;;;;5014958;28;20049;-67
2021/10/04 04:30:27;;;;;;;0.95;0.85;;;17.60;95.90;;;;;;5011806;28;20105;-67
2021/10/04 04:32:53;;;;;;;0.85;0.85;;;17.60;95.90;;;;;;5014436;28;20030;-67
2021/10/04 04:35:18;;;;;;;1.17;0.98;;;17.50;95.80;;;;;;5013608;28;20489;-68
2021/10/04 04:37:44;;;;;;;1.77;0.85;;;17.50;95.70;;;;;;5011669;28;20030;-68
2021/10/04 04:40:13;;;;;;;0.77;0.73;;;17.50;95.60;;;;;;5012937;28;20426;-68
2021/10/04 04:42:42;;;;;;;1.35;0.88;;;17.50;95.60;;;;;;5014457;28;20065;-69
2021/10/04 04:45:09;;;;;;;1.33;0.88;;;17.50;95.50;;;;;;5013530;28;20069;-68
2021/10/04 04:47:35;;;;;;;1.17;0.80;;;17.40;95.40;;;;;;5014227;28;20030;-68
2021/10/04 04:50:01;;;;;;;1.95;1.10;;;17.40;95.30;;;;;;5000828;28;20542;-68
2021/10/04 04:52:26;;;;;;;1.15;0.85;;;17.30;95.30;;;;;;5001664;28;20030;-68
2021/10/04 04:54:52;;;;;;;0.70;0.70;;;17.30;95.20;;;;;;5012705;28;20065;-69
2021/10/04 04:57:17;;;;;;;1.45;1.10;;;17.30;95.30;;;;;;5011602;28;20022;-68
2021/10/04 04:59:43;;;;;;;1.77;1.08;;;17.30;95.30;;;;;;5005503;28;20482;-68
2021/10/04 05:02:08;;;;;;;1.17;1.00;;;17.20;95.40;;;;;;5013202;28;20120;-69
2021/10/04 05:04:34;;;;;;;1.42;1.00;;;17.30;95.40;;;;;;5012318;28;20424;-69
2021/10/04 05:06:59;;;;;;;0.70;0.70;;;17.20;95.40;;;;;;5012659;28;20028;-68
2021/10/04 05:09:25;;;;;;;1.48;1.00;;;17.30;95.40;;;;;;5011690;28;20018;-68
2021/10/04 05:11:50;;;;;;;0.93;0.82;;;17.30;95.40;;;;;;5014887;28;20041;-68
2021/10/04 05:14:16;;;;;;;1.30;0.70;;;17.30;95.30;;;;;;5012336;28;20030;-69
2021/10/04 05:16:41;;;;;;;1.83;1.55;;;17.30;95.20;;;;;;5012703;28;20022;-69
2021/10/04 05:19:07;;;;;;;1.83;1.10;;;17.30;95.20;;;;;;5011472;28;20026;-69
2021/10/04 05:21:33;;;;;;;1.80;1.05;;;17.20;95.10;;;;;;5013635;28;20049;-68
2021/10/04 05:23:58;;;;;;;1.88;1.52;;;17.20;95.10;;;;;;5013088;28;20034;-68
2021/10/04 05:26:24;;;;;;;0.88;0.88;;;17.20;95.10;;;;;;5013671;28;20060;-69
2021/10/04 05:28:49;;;;;;;1.83;0.90;;;17.10;95.10;;;;;;5006316;28;20124;-69
2021/10/04 05:31:15;;;;;;;2.47;0.90;;;17.10;95.10;;;;;;5013793;28;20101;-68
2021/10/04 05:33:40;;;;;;;1.33;0.90;;;17.00;95.00;;;;;;5003684;28;20053;-68
2021/10/04 05:36:06;;;;;;;0.82;0.80;;;17.10;95.00;;;;;;5012732;28;20101;-68
2021/10/04 05:38:32;;;;;;;2.13;1.10;;;17.10;95.00;;;;;;5012445;28;20026;-68
2021/10/04 05:40:58;;;;;;;1.40;1.10;;;17.10;94.90;;;;;;5014280;28;20021;-68
2021/10/04 05:43:23;;;;;;;1.27;1.10;;;17.00;94.80;;;;;;5012279;28;20030;-68
2021/10/04 05:45:49;;;;;;;1.20;0.90;;;17.10;94.80;;;;;;5014244;28;20526;-68
2021/10/04 05:48:15;;;;;;;1.33;0.95;;;17.00;94.70;;;;;;5011782;28;20105;-68
2021/10/04 05:50:40;;;;;;;1.58;0.93;;;17.00;94.60;;;;;;4996764;28;20097;-69
2021/10/04 05:53:06;;;;;;;2.28;1.27;;;16.90;94.60;;;;;;5009714;28;20034;-68
2021/10/04 05:55:31;;;;;;;1.73;1.20;;;16.90;94.70;;;;;;5011762;28;20057;-68
2021/10/04 05:57:57;;;;;;;1.88;1.00;;;16.90;94.70;;;;;;5006249;28;20030;-69
2021/10/04 06:00:22;;;;;;;3.25;1.10;;;16.90;94.70;;;;;;5009610;28;20382;-69
2021/10/04 06:02:48;;;;;;;1.58;1.20;;;17.00;94.70;;;;;;5009515;28;20067;-70
2021/10/04 06:05:13;;;;;;;2.80;1.17;;;17.00;94.70;;;;;;5004320;28;20394;-69
2021/10/04 06:07:39;;;;;;;2.92;1.02;;;17.00;94.70;;;;;;5008933;28;20026;-68
2021/10/04 06:10:07;;;;;;;2.22;1.38;;;17.00;94.70;;;;;;5002833;28;20444;-68
2021/10/04 06:12:32;;;;;;;2.38;1.10;;;17.00;94.70;;;;;;4993816;28;20030;-69
2021/10/04 06:14:59;;;;;;;1.17;1.00;;;17.00;94.60;;;;;;5006151;28;20526;-69
2021/10/04 06:17:26;;;;;;;1.88;1.10;;;17.00;94.50;;;;;;5009838;28;20040;-69
2021/10/04 06:19:51;;;;;;;2.90;1.20;;;17.00;94.50;;;;;;5009969;28;20029;-69
2021/10/04 06:22:17;;;;;;;2.55;1.23;;;17.00;94.60;;;;;;4996905;28;20026;-69
2021/10/04 06:24:43;;;;;;;2.28;1.10;;;16.90;94.60;;;;;;5002853;28;20038;-67
2021/10/04 06:27:09;;;;;;;3.42;1.48;;;17.00;94.80;;;;;;5003485;28;20026;-68
2021/10/04 06:29:35;;;;;;;5.00;1.55;;;17.10;94.70;;;;;;5000282;28;20084;-67
2021/10/04 06:32:00;;;;;;;2.13;1.23;;;17.10;94.80;;;;;;5005195;28;20022;-68
2021/10/04 06:34:26;;;;;;;3.08;1.67;;;17.10;94.60;;;;;;4997688;28;20092;-67
2021/10/04 06:36:51;;;;;;;1.95;1.10;;;17.10;94.50;;;;;;5001486;28;20073;-67
2021/10/04 06:39:17;;;;;;;2.58;1.23;;;17.10;94.40;;;;;;5008411;28;20030;-69
2021/10/04 06:41:42;;;;;;;2.60;1.55;;;17.10;94.50;;;;;;4985284;28;20022;-67
2021/10/04 06:44:09;;;;;;;4.53;2.00;;;17.10;94.50;;;;;;4994792;28;20057;-69
2021/10/04 06:46:37;;;;;;;3.75;1.33;;;17.10;94.30;;;;;;5000168;28;20372;-68
2021/10/04 06:49:04;;;;;;;3.75;1.70;;;17.10;94.20;;;;;;5004766;28;20033;-68
2021/10/04 06:51:29;;;;;;;4.18;2.40;;;17.10;94.40;;;;;;5010660;28;20032;-69
2021/10/04 06:53:55;;;;;;;2.53;1.65;;;17.10;94.20;;;;;;4999289;28;20402;-68
2021/10/04 06:56:20;;;;;;;7.45;2.72;;;17.20;94.20;;;;;;5009073;28;20540;-68
2021/10/04 06:58:46;;;;;;;3.88;1.42;;;17.20;94.20;;;;;;4999453;28;20014;-70
2021/10/04 07:01:11;;;;;;;3.08;1.70;;;17.20;94.00;;;;;;5000305;28;20386;-69
2021/10/04 07:03:37;;;;;;;5.03;1.70;;;17.20;94.10;;;;;;5004694;28;20124;-69
2021/10/04 07:06:03;;;;;;;4.45;1.77;;;17.20;94.20;;;;;;5009275;28;20042;-69
2021/10/04 07:08:28;;;;;;;2.53;1.40;;;17.30;94.40;;;;;;4999121;28;20026;-69
2021/10/04 07:10:54;;;;;;;3.92;1.33;;;17.30;94.20;;;;;;5004122;28;20031;-69
2021/10/04 07:13:20;;;;;;;2.67;1.50;;;17.30;94.10;;;;;;4998003;28;20025;-69
2021/10/04 07:15:45;;;;;;;3.55;1.30;;;17.30;94.00;;;;;;5004680;28;20024;-69
2021/10/04 07:18:11;;;;;;;2.15;1.35;;;17.30;94.10;;;;;;5002134;28;20044;-69
2021/10/04 07:20:37;;;;;;;3.05;1.27;;;17.30;94.00;;;;;;4995582;28;20610;-69
2021/10/04 07:23:03;;;;;;;5.10;1.50;;;17.30;94.20;;;;;;5002289;28;20030;-69
2021/10/04 07:25:30;;;;;;;1.70;1.33;;;17.30;94.20;;;;;;5008451;28;20049;-69
2021/10/04 07:27:56;;;;;;;7.00;1.50;;;17.40;94.10;;;;;;5007089;28;20029;-68
2021/10/04 07:30:22;;;;;;;2.30;1.17;;;17.40;94.10;;;;;;5008112;28;20025;-68
2021/10/04 07:32:47;;;;;;;2.58;1.33;;;17.40;94.10;;;;;;5000478;28;20033;-69
2021/10/04 07:35:13;;;;;;;2.65;1.25;;;17.40;93.90;;;;;;4999732;28;20100;-68
2021/10/04 07:37:38;;;;;;;2.67;1.27;;;17.40;93.90;;;;;;5005290;28;20490;-69
2021/10/04 07:40:05;;;;;;;3.55;1.40;;;17.50;93.90;;;;;;5009087;28;20387;-68
2021/10/04 07:42:31;;;;;;;2.15;1.38;;;17.50;93.70;;;;;;5000422;28;20019;-68
2021/10/04 07:44:57;;;;;;;2.13;1.40;;;17.40;93.50;;;;;;5009960;28;20033;-67
2021/10/04 07:47:23;;;;;;;1.80;1.30;;;17.40;93.50;;;;;;5008834;28;20129;-68
2021/10/04 07:49:48;;;;;;;2.70;1.70;;;17.40;93.40;;;;;;5006625;28;20482;-68
2021/10/04 07:52:14;;;;;;;3.30;1.90;;;17.40;93.20;;;;;;4998817;28;20019;-68
2021/10/04 07:54:40;;;;;;;3.13;1.77;;;17.30;93.30;;;;;;4997660;28;20072;-68
2021/10/04 07:57:05;;;;;;;2.75;1.45;;;17.40;93.40;;;;;;5014353;28;20096;-68
2021/10/04 07:59:31;;;;;;;4.82;1.50;;;17.40;93.40;;;;;;5007439;28;20034;-67
2021/10/04 08:01:56;;;;;;;6.63;1.63;;;17.40;93.50;;;;;;4998841;28;20046;-67
2021/10/04 08:04:23;;;;;;;2.20;1.23;;;17.40;93.50;;;;;;5002443;28;20391;-68
2021/10/04 08:06:48;;;;;;;4.93;1.70;;;17.50;93.50;;;;;;5006548;28;20041;-67
2021/10/04 08:09:14;;;;;;;4.95;1.30;;;17.50;93.40;;;;;;4995213;28;20030;-69
2021/10/04 08:11:39;;;;;;;3.03;1.95;;;17.50;93.10;;;;;;4994549;28;20041;-68
2021/10/04 08:14:05;;;;;;;2.45;1.42;;;17.60;93.00;;;;;;5004524;28;20140;-67
2021/10/04 08:16:30;;;;;;;2.35;1.50;;;17.60;92.90;;;;;;5010101;28;20474;-67
2021/10/04 08:18:56;;;;;;;3.08;1.50;;;17.70;93.00;;;;;;5007231;28;20068;-66
2021/10/04 08:21:23;;;;;;;2.75;1.30;;;17.70;93.00;;;;;;5008723;28;20176;-66
2021/10/04 08:23:49;;;;;;;7.60;1.90;;;17.80;93.10;;;;;;5000182;28;20041;-66
2021/10/04 08:26:16;;;;;;;4.22;1.30;;;17.80;93.10;;;;;;4995171;28;20030;-67
2021/10/04 08:28:42;;;;;;;3.47;1.27;;;17.80;92.70;;;;;;5000767;28;20053;-66
2021/10/04 08:31:07;;;;;;;2.42;1.25;;;17.80;92.70;;;;;;5008080;28;20026;-67
2021/10/04 08:33:34;;;;;;;3.60;1.42;;;17.90;92.60;;;;;;4999291;28;20026;-67
2021/10/04 08:36:01;;;;;;;2.17;1.40;;;17.90;92.40;;;;;;5007024;28;20467;-65
2021/10/04 08:38:27;;;;;;;3.05;1.35;;;17.90;92.30;;;;;;5005842;28;20382;-67
2021/10/04 08:40:53;;;;;;;3.03;1.52;;;18.00;92.20;;;;;;4993728;28;20121;-66
2021/10/04 08:43:19;;;;;;;7.25;1.90;;;18.00;91.90;;;;;;5001294;28;20123;-67
2021/10/04 08:45:45;;;;;;;2.95;1.63;;;18.00;91.90;;;;;;5008021;28;20059;-66
2021/10/04 08:48:11;;;;;;;3.85;2.15;;;18.00;91.80;;;;;;5006347;28;20029;-66
2021/10/04 08:50:37;;;;;;;4.32;1.90;;;18.00;91.70;;;;;;5006358;28;20034;-66
2021/10/04 08:53:03;;;;;;;5.05;2.55;;;18.00;91.60;;;;;;4998718;28;20022;-66
2021/10/04 08:55:29;;;;;;;4.07;1.60;;;18.00;91.40;;;;;;4998574;28;20050;-67
2021/10/04 08:57:54;;;;;;;5.03;2.38;;;18.00;91.50;;;;;;5016698;28;20113;-67
2021/10/04 09:00:20;;;;;;;12.48;7.57;;;18.00;91.50;;;;;;5005963;28;20034;-66
2021/10/04 09:02:48;;;;;;;6.07;3.13;;;18.00;91.40;;;;;;5006768;28;20057;-67
2021/10/04 09:05:27;;;;;;;3.75;1.95;;;17.90;91.40;;;;;;5007027;28;20045;-67
2021/10/04 09:07:55;;;;;;;3.22;1.92;;;17.90;91.20;;;;;;5010821;28;20540;-67
2021/10/04 09:10:27;;;;;;;2.90;1.50;;;17.90;91.30;;;;;;5009328;28;20042;-67
2021/10/04 09:12:55;;;;;;;3.47;1.50;;;17.90;91.10;;;;;;5005656;28;20124;-67
2021/10/04 09:15:29;;;;;;;3.45;1.25;;;17.90;91.10;;;;;;5006868;28;20018;-67
2021/10/04 09:17:56;;;;;;;3.30;1.58;;;17.90;90.90;;;;;;5009235;28;20114;-67
2021/10/04 09:20:22;;;;;;;4.00;1.63;;;17.90;91.10;;;;;;5011289;28;20045;-67
2021/10/04 09:22:48;;;;;;;3.75;1.73;;;17.90;91.20;;;;;;5014424;28;20025;-67
2021/10/04 09:25:14;;;;;;;4.90;1.60;;;17.80;91.20;;;;;;5000818;28;20034;-67
2021/10/04 09:27:42;;;;;;;5.00;1.88;;;17.90;91.20;;;;;;4994998;28;20034;-67
2021/10/04 09:30:10;;;;;;;7.15;1.90;;;17.90;91.20;;;;;;5008996;28;20038;-67
2021/10/04 09:32:41;;;;;;;9.20;2.30;;;17.90;91.10;;;;;;5013964;28;20543;-67
2021/10/04 09:35:12;;;;;;;4.68;1.83;;;17.90;91.30;;;;;;4999501;28;20030;-67
2021/10/04 09:37:38;;;;;;;3.95;1.40;;;18.00;91.20;;;;;;5006008;28;20029;-67
2021/10/04 09:40:04;;;;;;;4.35;1.45;;;18.00;91.20;;;;;;5013055;28;20036;-67
2021/10/04 09:42:38;;;;;;;4.20;1.80;;;18.10;91.20;;;;;;5011412;28;20088;-67
2021/10/04 09:45:05;;;;;;;;;;;18.10;91.10;;;;;;5013379;28;20045;-67
2021/10/04 09:47:37;;;;;;;3.28;1.48;;;18.10;91.20;;;;;;5013832;28;19905;-67
2021/10/04 09:50:05;;;;;;;3.63;1.40;;;18.10;91.10;;;;;;5012987;28;20045;-67
2021/10/04 09:52:32;;;;;;;2.65;1.40;;;18.10;90.90;;;;;;5014160;28;20100;-67
2021/10/04 09:54:58;;;;;;;2.58;1.50;;;18.20;90.90;;;;;;5012888;28;20060;-67
2021/10/04 09:57:24;;;;;;;3.75;1.63;;;18.20;90.70;;;;;;5013570;28;20054;-66
2021/10/04 09:59:50;;;;;;;4.15;1.60;;;18.30;90.60;;;;;;5011622;28;20367;-67
2021/10/04 10:02:18;;;;;;;5.18;1.60;;;18.30;90.60;;;;;;5013456;28;20022;-67
2021/10/04 10:04:47;;;;;;;4.20;1.58;;;18.30;90.60;;;;;;5012454;28;20084;-67
2021/10/04 10:07:13;;;;;;;3.72;1.58;;;18.30;90.50;;;;;;5013456;28;20478;-67
2021/10/04 10:09:41;;;;;;;3.33;1.75;;;18.30;90.50;;;;;;5013065;28;20033;-67
2021/10/04 10:12:08;;;;;;;2.90;1.50;;;18.40;90.30;;;;;;5011838;28;20402;-67
2021/10/04 10:14:45;;;;;;;2.47;1.30;;;18.40;90.20;;;;;;5012334;28;20026;-67
2021/10/04 10:17:23;;;;;;;7.20;1.88;;;18.40;90.10;;;;;;5012173;28;20033;-67
2021/10/04 10:19:55;;;;;;;2.28;1.30;;;18.50;90.00;;;;;;5011419;28;20038;-67
2021/10/04 10:22:20;;;;;;;4.13;1.27;;;18.50;90.30;;;;;;5013232;28;20026;-67
2021/10/04 10:24:50;;;;;;;1.77;1.30;;;18.60;90.20;;;;;;5009813;28;20038;-67
2021/10/04 10:27:19;;;;;;;4.35;1.77;;;18.60;90.10;;;;;;5013219;28;20101;-67
2021/10/04 10:29:44;;;;;;;4.63;1.25;;;18.70;90.10;;;;;;5011640;28;20458;-67
2021/10/04 10:32:16;;;;;;;2.15;1.45;;;18.70;89.20;;;;;;5009565;28;20068;-68
2021/10/04 10:34:45;;;;;;;2.67;1.50;;;18.70;89.30;;;;;;5013052;28;20103;-66
2021/10/04 10:37:23;;;;;;;3.15;1.58;;;18.80;89.60;;;;;;5013088;28;20072;-67
2021/10/04 10:39:53;;;;;;;4.75;1.95;;;18.80;89.10;;;;;;4997482;28;20083;-66
2021/10/04 10:42:34;;;;;;;3.83;1.40;;;18.80;88.60;;;;;;5011836;28;20057;-66
2021/10/04 10:45:00;;;;;;;2.97;1.58;;;18.80;88.80;;;;;;5010911;28;20042;-66
2021/10/04 10:47:35;;;;;;;3.17;1.60;;;18.80;88.50;;;;;;5007941;28;20560;-67
2021/10/04 10:50:12;;;;;;;3.42;1.42;;;18.80;88.60;;;;;;5003129;28;20053;-66
2021/10/04 10:52:47;;;;;;;3.40;1.80;;;18.80;88.30;;;;;;5002513;28;20084;-67
2021/10/04 10:55:19;;;;;;;6.20;2.70;;;18.80;88.10;;;;;;5007801;28;20068;-67
2021/10/04 10:57:50;;;;;;;4.72;1.60;;;18.90;87.90;;;;;;5013963;28;20046;-67
2021/10/04 11:00:46;;;;;;;4.80;1.58;;;18.80;87.60;;;;;;5018852;28;20026;-67
2021/10/04 11:03:25;;;;;;;5.25;1.60;;;18.80;88.00;;;;;;5007561;28;20080;-67
2021/10/04 11:05:55;;;;;;;4.82;1.95;;;18.70;87.80;;;;;;5011123;28;20042;-67
2021/10/04 11:08:28;;;;;;;6.22;1.90;;;18.70;87.60;;;;;;5003234;28;20073;-67
2021/10/04 11:10:53;;;;;;;5.95;2.63;;;18.70;87.60;;;;;;5019124;28;20047;-67
2021/10/04 11:13:33;;;;;;;3.40;1.95;;;18.70;87.90;;;;;;5011499;28;20037;-67
2021/10/04 11:16:01;;;;;;;4.38;1.85;;;18.80;88.00;;;;;;5011307;28;20030;-67
2021/10/04 11:18:41;;;;;;;4.57;1.75;;;18.80;87.70;;;;;;5017143;28;20030;-67
2021/10/04 11:21:09;;;;;;;5.65;1.88;;;18.80;87.80;;;;;;5013010;28;20374;-67
2021/10/04 11:23:46;;;;;;;5.85;2.10;;;18.80;87.70;;;;;;5005049;28;20022;-67
2021/10/04 11:26:18;;;;;;;4.97;2.13;;;18.80;87.80;;;;;;5006575;28;20469;-67
2021/10/04 11:28:46;;;;;;;4.95;1.80;;;18.80;87.50;;;;;;5012341;28;20119;-67
2021/10/04 11:31:14;;;;;;;5.63;1.63;;;18.90;87.60;;;;;;5010239;28;20034;-67
2021/10/04 11:33:52;;;;;;;3.08;1.50;;;18.90;87.30;;;;;;5012280;28;20100;-67
2021/10/04 11:36:20;;;;;;;3.90;1.88;;;18.90;87.20;;;;;;5011049;28;20446;-68
2021/10/04 11:38:49;;;;;;;4.95;1.80;;;19.00;87.20;;;;;;5012263;28;20037;-67
2021/10/04 11:41:30;;;;;;;3.25;1.77;;;19.00;87.10;;;;;;5003607;28;20014;-67
2021/10/04 11:44:04;;;;;;;3.72;1.63;;;19.00;86.90;;;;;;5006672;28;20610;-67
2021/10/04 11:46:34;;;;;;;4.07;1.55;;;19.00;87.10;;;;;;5000487;28;20434;-66
2021/10/04 11:49:06;;;;;;;4.88;1.70;;;19.00;86.90;;;;;;5000574;28;20113;-66
2021/10/04 11:51:33;;;;;;;5.97;1.60;;;19.00;86.70;;;;;;5011060;28;20437;-65
2021/10/04 11:53:59;;;;;;;4.13;1.50;;;19.00;86.80;;;;;;5011685;28;20050;-66
2021/10/04 11:56:25;;;;;;;4.95;1.70;;;19.00;86.50;;;;;;5010489;28;20108;-67
2021/10/04 11:58:54;;;;;;;3.47;2.03;;;19.10;86.60;;;;;;5010571;28;20105;-67
2021/10/04 12:01:35;;;;;;;3.40;1.58;;;19.10;86.50;;;;;;5000106;28;20034;-65
2021/10/04 12:04:03;;;;;;;7.10;2.08;;;19.10;86.70;;;;;;5012283;28;20033;-67
2021/10/04 12:06:30;;;;;;;2.70;1.83;;;19.00;86.50;;;;;;5006002;28;20494;-66
2021/10/04 12:08:56;;;;;;;4.15;2.40;;;19.10;86.40;;;;;;5011858;28;20481;-67
2021/10/04 12:11:23;;;;;;;5.10;2.42;;;19.10;86.20;;;;;;5010904;28;20102;-67
2021/10/04 12:13:49;;;;;;;5.75;2.85;;;19.10;86.30;;;;;;5010948;28;20030;-67
2021/10/04 12:16:16;;;;;;;3.47;2.10;;;19.00;86.40;;;;;;5006516;28;20114;-67
2021/10/04 12:18:53;;;;;;;4.80;2.15;;;19.00;86.10;;;;;;5011715;28;20038;-67
2021/10/04 12:21:35;;;;;;;5.10;2.08;;;19.00;85.90;;;;;;5009957;28;20508;-67
2021/10/04 12:24:28;;;;;;;4.90;2.25;;;19.00;85.90;;;;;;5011667;28;20076;-67
2021/10/04 12:27:12;;;;;;;4.45;1.75;;;18.90;86.00;;;;;;4991278;28;20499;-67
2021/10/04 12:29:38;;;;;;;7.47;2.30;;;18.90;86.30;;;;;;4994077;28;20445;-67
2021/10/04 12:32:21;;;;;;;4.53;2.42;;;18.90;86.50;;;;;;5001120;28;20113;-67
2021/10/04 12:35:12;;;;;;;4.95;2.58;;;18.90;86.50;;;;;;4994558;28;20080;-67
2021/10/04 12:37:56;;;;;;;4.90;2.38;;;18.80;86.50;;;;;;4992192;28;20491;-68
2021/10/04 12:40:41;;;;;;;3.72;2.40;;;18.80;86.80;;;;;;4999335;28;20131;-67
2021/10/04 12:43:11;;;;;;;7.90;2.00;;;18.80;86.70;;;;;;5015404;28;20568;-67
2021/10/04 12:45:37;;;;;;;6.70;1.80;;;18.80;86.70;;;;;;5012749;28;20052;-67